Main page
METAR-TAF:

METAR-TAF

Airports :

Houston Executive Airport

Houston, Texas, United States

latitude: 29-48-18N, longitude: 095-53-52W, elevation: 167 ft

Current weather observation

The report was made 16 minutes ago, at 02:15 UTC
Wind 15 mph from the North
Temperature 48°F
Humidity 93%
Pressure 30.38 in. Hg
Visibility: 10 miles
Broken clouds at a height of 1500 ft
Overcast at a height of 2100 ft

METAR: KTME 110215Z AUTO 36013KT 10SM BKN015 OVC021 09/08 A3038 RMK AO2

Time: 19:31 (02:31 UTC)


TAF: missing

Weather observations and forecasts of more than 4000 airports (METAR and TAF reports).

The available stations are represented by yellow and red dots on the map.

Hover mouse over dot to see the name of the station.

Then click to see weather observations and forecasts.

To change the map : click on the green buttons with a black cross to zoom in, on the green button with a dash to zoom out, or on the green arrows for adjacent maps.


METAR-TAF: